TAIP52 YCBG-YCBG
Flight info
| Callsign | TAIP52 |
|---|---|
| Flight time | 0h 17m |
| Altitude | 6000 |
| Route | YMLT |
| Aircraft | EC35/L-SDFGRY/C |
Departure
| Time | 2026-04-27 00:52 |
|---|---|
| Airport | Cambridge Aerodrome (YCBG) |
Arrival
| Time | 2026-04-27 01:10 |
|---|---|
| Airport | Cambridge Aerodrome (YCBG) |
| Time | Latitude | Longitude | Altitude | Speed | Heading |
|---|---|---|---|---|---|
| 2026-04-27 00:40 | -42.82919 | 147.47696 | 47 ft | 0 kts | 185° |
| 2026-04-27 00:48 | -42.82918 | 147.47697 | 51 ft | 1 kts | 186° |
| 2026-04-27 00:48 | -42.82921 | 147.47697 | 54 ft | 1 kts | 162° |
| 2026-04-27 00:48 | -42.82938 | 147.47714 | 46 ft | 5 kts | 63° |
| 2026-04-27 00:49 | -42.82934 | 147.47746 | 48 ft | 3 kts | 31° |
| 2026-04-27 00:49 | -42.82931 | 147.47748 | 46 ft | 2 kts | 30° |
| 2026-04-27 00:49 | -42.82923 | 147.47757 | 48 ft | 3 kts | 34° |
| 2026-04-27 00:49 | -42.82909 | 147.47787 | 50 ft | 4 kts | 49° |
| 2026-04-27 00:50 | -42.82899 | 147.47812 | 51 ft | 2 kts | 339° |
| 2026-04-27 00:50 | -42.82895 | 147.47815 | 47 ft | 0 kts | 336° |
| 2026-04-27 00:50 | -42.82896 | 147.47815 | 47 ft | 0 kts | 338° |
| 2026-04-27 00:51 | -42.82894 | 147.47816 | 48 ft | 0 kts | 338° |
| 2026-04-27 00:51 | -42.82898 | 147.47807 | 47 ft | 1 kts | 340° |
| 2026-04-27 00:51 | -42.82895 | 147.47809 | 47 ft | 2 kts | 341° |
| 2026-04-27 00:51 | -42.82756 | 147.47739 | 90 ft | 54 kts | 327° |
| 2026-04-27 00:52 | -42.82334 | 147.47516 | 269 ft | 73 kts | 333° |
| 2026-04-27 00:52 | -42.81816 | 147.47291 | 465 ft | 76 kts | 339° |
| 2026-04-27 00:52 | -42.81279 | 147.47336 | 662 ft | 86 kts | 22° |
| 2026-04-27 00:52 | -42.81110 | 147.48106 | 901 ft | 95 kts | 111° |
| 2026-04-27 00:53 | -42.81608 | 147.48497 | 1189 ft | 81 kts | 188° |
| 2026-04-27 00:53 | -42.82137 | 147.48552 | 1503 ft | 75 kts | 186° |
| 2026-04-27 00:53 | -42.82720 | 147.48783 | 1569 ft | 105 kts | 162° |
| 2026-04-27 00:53 | -42.83469 | 147.49170 | 1458 ft | 121 kts | 168° |
| 2026-04-27 00:54 | -42.84309 | 147.49397 | 1396 ft | 124 kts | 176° |
| 2026-04-27 00:54 | -42.85157 | 147.49528 | 1368 ft | 121 kts | 181° |
| 2026-04-27 00:54 | -42.85976 | 147.49536 | 1428 ft | 115 kts | 186° |
| 2026-04-27 00:54 | -42.86773 | 147.49568 | 1464 ft | 115 kts | 182° |
| 2026-04-27 00:55 | -42.87569 | 147.49685 | 1500 ft | 115 kts | 176° |
| 2026-04-27 00:55 | -42.88372 | 147.49868 | 1514 ft | 119 kts | 174° |
| 2026-04-27 00:55 | -42.89197 | 147.50062 | 1453 ft | 121 kts | 177° |
| 2026-04-27 00:55 | -42.90032 | 147.50189 | 1378 ft | 120 kts | 179° |
| 2026-04-27 00:56 | -42.90845 | 147.50248 | 1350 ft | 114 kts | 184° |
| 2026-04-27 00:56 | -42.91616 | 147.50277 | 1395 ft | 108 kts | 182° |
| 2026-04-27 00:56 | -42.92354 | 147.50318 | 1453 ft | 104 kts | 184° |
| 2026-04-27 00:56 | -42.93063 | 147.50367 | 1476 ft | 100 kts | 184° |
| 2026-04-27 00:57 | -42.93743 | 147.50411 | 1488 ft | 96 kts | 184° |
| 2026-04-27 00:57 | -42.94400 | 147.50427 | 1493 ft | 93 kts | 185° |
| 2026-04-27 00:57 | -42.95051 | 147.50446 | 1469 ft | 101 kts | 186° |
| 2026-04-27 00:57 | -42.95823 | 147.50439 | 1480 ft | 115 kts | 185° |
| 2026-04-27 00:58 | -42.96646 | 147.50406 | 1488 ft | 121 kts | 185° |
| 2026-04-27 00:58 | -42.97499 | 147.50356 | 1494 ft | 125 kts | 185° |
| 2026-04-27 00:58 | -42.98377 | 147.50303 | 1497 ft | 128 kts | 185° |
| 2026-04-27 00:58 | -42.99246 | 147.50259 | 1517 ft | 120 kts | 185° |
| 2026-04-27 00:59 | -43.00036 | 147.50249 | 1495 ft | 113 kts | 185° |
| 2026-04-27 00:59 | -43.00831 | 147.50247 | 1494 ft | 114 kts | 185° |
| 2026-04-27 00:59 | -43.01574 | 147.49981 | 1493 ft | 110 kts | 217° |
| 2026-04-27 00:59 | -43.02000 | 147.49166 | 1499 ft | 106 kts | 256° |
| 2026-04-27 01:00 | -43.02142 | 147.48188 | 1500 ft | 104 kts | 255° |
| 2026-04-27 01:00 | -43.02398 | 147.47255 | 1497 ft | 107 kts | 250° |
| 2026-04-27 01:00 | -43.02681 | 147.46322 | 1494 ft | 106 kts | 251° |
| 2026-04-27 01:00 | -43.02967 | 147.45384 | 1504 ft | 106 kts | 250° |
| 2026-04-27 01:01 | -43.03186 | 147.44431 | 1499 ft | 106 kts | 268° |
| 2026-04-27 01:01 | -43.02951 | 147.43505 | 1501 ft | 105 kts | 308° |
| 2026-04-27 01:01 | -43.02317 | 147.42991 | 1497 ft | 110 kts | 337° |
| 2026-04-27 01:01 | -43.01596 | 147.42661 | 1498 ft | 109 kts | 339° |
| 2026-04-27 01:02 | -43.00886 | 147.42366 | 1494 ft | 108 kts | 340° |
| 2026-04-27 01:02 | -43.00155 | 147.42063 | 1499 ft | 111 kts | 339° |
| 2026-04-27 01:02 | -42.99389 | 147.41746 | 1496 ft | 117 kts | 339° |
| 2026-04-27 01:02 | -42.98606 | 147.41481 | 1498 ft | 117 kts | 351° |
| 2026-04-27 01:03 | -42.97795 | 147.41654 | 1493 ft | 119 kts | 9° |
| 2026-04-27 01:03 | -42.96984 | 147.41890 | 1490 ft | 119 kts | 6° |
| 2026-04-27 01:03 | -42.96168 | 147.42087 | 1499 ft | 119 kts | 6° |
| 2026-04-27 01:03 | -42.95356 | 147.42283 | 1496 ft | 118 kts | 6° |
| 2026-04-27 01:04 | -42.94549 | 147.42305 | 1491 ft | 116 kts | 343° |
| 2026-04-27 01:04 | -42.93888 | 147.41728 | 1500 ft | 112 kts | 310° |
| 2026-04-27 01:04 | -42.93410 | 147.40907 | 1492 ft | 110 kts | 305° |
| 2026-04-27 01:04 | -42.92948 | 147.40069 | 1464 ft | 111 kts | 305° |
| 2026-04-27 01:05 | -42.92517 | 147.39274 | 1351 ft | 97 kts | 304° |
| 2026-04-27 01:05 | -42.92101 | 147.38538 | 1213 ft | 100 kts | 308° |
| 2026-04-27 01:05 | -42.91622 | 147.37845 | 1086 ft | 100 kts | 312° |
| 2026-04-27 01:05 | -42.91137 | 147.37154 | 969 ft | 101 kts | 311° |
| 2026-04-27 01:06 | -42.90658 | 147.36495 | 936 ft | 95 kts | 312° |
| 2026-04-27 01:06 | -42.90178 | 147.35848 | 964 ft | 99 kts | 313° |
| 2026-04-27 01:06 | -42.89684 | 147.35173 | 990 ft | 99 kts | 311° |
| 2026-04-27 01:06 | -42.89200 | 147.34520 | 987 ft | 101 kts | 312° |
| 2026-04-27 01:07 | -42.88704 | 147.33826 | 1007 ft | 99 kts | 309° |
| 2026-04-27 01:07 | -42.88255 | 147.33155 | 1005 ft | 96 kts | 308° |
| 2026-04-27 01:07 | -42.87692 | 147.32618 | 1006 ft | 102 kts | 335° |
| 2026-04-27 01:07 | -42.87013 | 147.32914 | 1002 ft | 117 kts | 47° |
| 2026-04-27 01:08 | -42.87042 | 147.33957 | 1010 ft | 118 kts | 131° |
| 2026-04-27 01:08 | -42.87784 | 147.34388 | 1015 ft | 117 kts | 161° |
| 2026-04-27 01:08 | -42.88549 | 147.34750 | 785 ft | 117 kts | 161° |
| 2026-04-27 01:08 | -42.89254 | 147.34990 | 816 ft | 93 kts | 187° |
| 2026-04-27 01:09 | -42.89747 | 147.34578 | 777 ft | 79 kts | 246° |
| 2026-04-27 01:09 | -42.89706 | 147.33925 | 811 ft | 72 kts | 306° |
| 2026-04-27 01:09 | -42.89231 | 147.33715 | 803 ft | 71 kts | 338° |
| 2026-04-27 01:09 | -42.88777 | 147.33655 | 744 ft | 61 kts | 331° |
| 2026-04-27 01:10 | -42.88405 | 147.33524 | 684 ft | 42 kts | 323° |
| 2026-04-27 01:10 | -42.88222 | 147.33389 | 577 ft | 19 kts | 318° |
| 2026-04-27 01:10 | -42.88135 | 147.33286 | 495 ft | 14 kts | 313° |
| 2026-04-27 01:10 | -42.88074 | 147.33209 | 417 ft | 10 kts | 313° |
| 2026-04-27 01:11 | -42.88021 | 147.33132 | 329 ft | 10 kts | 317° |
| 2026-04-27 01:11 | -42.87991 | 147.33084 | 280 ft | 4 kts | 320° |
| 2026-04-27 01:11 | -42.87977 | 147.33055 | 258 ft | 0 kts | 320° |
| 2026-04-27 01:11 | -42.87979 | 147.33057 | 242 ft | 2 kts | 321° |
| 2026-04-27 01:12 | -42.87976 | 147.33050 | 233 ft | 0 kts | 321° |
| 2026-04-27 01:12 | -42.87975 | 147.33050 | 228 ft | 0 kts | 321° |
| 2026-04-27 01:13 | -42.87976 | 147.33051 | 232 ft | 0 kts | 316° |
| 2026-04-27 01:13 | -42.87972 | 147.33050 | 235 ft | 1 kts | 315° |
| 2026-04-27 01:13 | -42.87917 | 147.32984 | 295 ft | 33 kts | 316° |
| 2026-04-27 01:13 | -42.87621 | 147.32640 | 492 ft | 68 kts | 315° |
| 2026-04-27 01:14 | -42.87233 | 147.32293 | 809 ft | 68 kts | 326° |
| 2026-04-27 01:14 | -42.86751 | 147.32440 | 993 ft | 85 kts | 37° |
| 2026-04-27 01:14 | -42.86549 | 147.33303 | 980 ft | 111 kts | 95° |
| 2026-04-27 01:14 | -42.86954 | 147.34203 | 951 ft | 114 kts | 142° |
| 2026-04-27 01:15 | -42.87557 | 147.34847 | 1006 ft | 107 kts | 146° |
| 2026-04-27 01:15 | -42.88141 | 147.35475 | 1021 ft | 106 kts | 146° |
| 2026-04-27 01:15 | -42.88742 | 147.35986 | 942 ft | 95 kts | 176° |
| 2026-04-27 01:15 | -42.89279 | 147.35774 | 846 ft | 73 kts | 238° |
| 2026-04-27 01:16 | -42.89239 | 147.35251 | 796 ft | 52 kts | 309° |
| 2026-04-27 01:16 | -42.89017 | 147.34985 | 737 ft | 35 kts | 308° |
| 2026-04-27 01:16 | -42.88874 | 147.34762 | 710 ft | 28 kts | 303° |
| 2026-04-27 01:16 | -42.88756 | 147.34591 | 724 ft | 23 kts | 304° |
| 2026-04-27 01:17 | -42.88652 | 147.34393 | 729 ft | 28 kts | 300° |
| 2026-04-27 01:17 | -42.88530 | 147.34151 | 690 ft | 30 kts | 301° |
| 2026-04-27 01:17 | -42.88421 | 147.33951 | 685 ft | 24 kts | 303° |
| 2026-04-27 01:17 | -42.88327 | 147.33771 | 677 ft | 23 kts | 307° |
| 2026-04-27 01:18 | -42.88230 | 147.33602 | 631 ft | 21 kts | 306° |
| 2026-04-27 01:18 | -42.88155 | 147.33458 | 557 ft | 16 kts | 304° |
| 2026-04-27 01:18 | -42.88105 | 147.33321 | 441 ft | 16 kts | 303° |
| 2026-04-27 01:18 | -42.88057 | 147.33211 | 373 ft | 11 kts | 302° |
| 2026-04-27 01:19 | -42.88026 | 147.33141 | 303 ft | 7 kts | 308° |
| 2026-04-27 01:19 | -42.88002 | 147.33097 | 291 ft | 4 kts | 316° |
| 2026-04-27 01:19 | -42.87986 | 147.33068 | 255 ft | 5 kts | 316° |
| 2026-04-27 01:19 | -42.87974 | 147.33053 | 250 ft | 1 kts | 316° |
| 2026-04-27 01:20 | -42.87976 | 147.33052 | 236 ft | 1 kts | 318° |
| 2026-04-27 01:20 | -42.87974 | 147.33050 | 231 ft | 0 kts | 318° |
| 2026-04-27 01:21 | -42.87973 | 147.33051 | 238 ft | 1 kts | 309° |
| 2026-04-27 01:21 | -42.87890 | 147.32935 | 352 ft | 45 kts | 311° |
| 2026-04-27 01:21 | -42.87521 | 147.32531 | 608 ft | 76 kts | 311° |
| 2026-04-27 01:21 | -42.87063 | 147.32145 | 878 ft | 77 kts | 326° |
| 2026-04-27 01:22 | -42.86506 | 147.32135 | 1180 ft | 90 kts | 16° |
| 2026-04-27 01:22 | -42.86091 | 147.32822 | 1404 ft | 103 kts | 67° |
| 2026-04-27 01:22 | -42.85901 | 147.33815 | 1458 ft | 115 kts | 74° |
| 2026-04-27 01:22 | -42.85722 | 147.34897 | 1462 ft | 115 kts | 72° |
| 2026-04-27 01:23 | -42.85555 | 147.35952 | 1461 ft | 116 kts | 76° |
| 2026-04-27 01:23 | -42.85403 | 147.37023 | 1461 ft | 114 kts | 76° |
| 2026-04-27 01:23 | -42.85254 | 147.38080 | 1460 ft | 112 kts | 76° |
| 2026-04-27 01:23 | -42.85106 | 147.39118 | 1464 ft | 111 kts | 75° |
| 2026-04-27 01:24 | -42.84961 | 147.40149 | 1461 ft | 110 kts | 75° |
| 2026-04-27 01:24 | -42.84817 | 147.41176 | 1462 ft | 111 kts | 76° |
| 2026-04-27 01:24 | -42.84661 | 147.42199 | 1464 ft | 110 kts | 75° |
| 2026-04-27 01:24 | -42.84524 | 147.43231 | 1500 ft | 111 kts | 77° |
| 2026-04-27 01:25 | -42.84374 | 147.44262 | 1682 ft | 112 kts | 75° |
| 2026-04-27 01:25 | -42.84223 | 147.45312 | 1558 ft | 113 kts | 74° |
| 2026-04-27 01:25 | -42.84156 | 147.46374 | 1332 ft | 110 kts | 89° |
| 2026-04-27 01:25 | -42.84181 | 147.47323 | 1008 ft | 91 kts | 92° |
| 2026-04-27 01:26 | -42.84051 | 147.48033 | 724 ft | 64 kts | 44° |
| 2026-04-27 01:26 | -42.83735 | 147.48241 | 602 ft | 44 kts | 358° |
| 2026-04-27 01:26 | -42.83460 | 147.48141 | 476 ft | 39 kts | 338° |
| 2026-04-27 01:26 | -42.83192 | 147.48004 | 359 ft | 42 kts | 333° |
| 2026-04-27 01:27 | -42.82954 | 147.47853 | 190 ft | 33 kts | 335° |
| 2026-04-27 01:27 | -42.82808 | 147.47748 | 70 ft | 10 kts | 332° |
| 2026-04-27 01:27 | -42.82795 | 147.47745 | 49 ft | 2 kts | 333° |
| 2026-04-27 01:27 | -42.82714 | 147.47700 | 70 ft | 31 kts | 332° |
| 2026-04-27 01:28 | -42.82414 | 147.47521 | 133 ft | 57 kts | 331° |
| 2026-04-27 01:28 | -42.82047 | 147.47314 | 308 ft | 58 kts | 329° |
| 2026-04-27 01:28 | -42.81612 | 147.47424 | 382 ft | 77 kts | 33° |
| 2026-04-27 01:28 | -42.81489 | 147.48126 | 580 ft | 84 kts | 109° |
| 2026-04-27 01:29 | -42.81914 | 147.48530 | 795 ft | 73 kts | 180° |
| 2026-04-27 01:29 | -42.82420 | 147.48659 | 980 ft | 76 kts | 179° |
| 2026-04-27 01:29 | -42.82940 | 147.48900 | 1114 ft | 82 kts | 168° |
| 2026-04-27 01:29 | -42.83491 | 147.49181 | 1203 ft | 86 kts | 172° |
| 2026-04-27 01:30 | -42.84057 | 147.49359 | 1345 ft | 81 kts | 177° |
| 2026-04-27 01:30 | -42.84598 | 147.49478 | 1515 ft | 78 kts | 177° |
| 2026-04-27 01:30 | -42.85119 | 147.49608 | 1505 ft | 77 kts | 179° |
| 2026-04-27 01:30 | -42.85763 | 147.49745 | 1479 ft | 110 kts | 179° |
| 2026-04-27 01:31 | -42.86549 | 147.49810 | 1491 ft | 113 kts | 183° |
| 2026-04-27 01:31 | -42.87385 | 147.49879 | 1495 ft | 122 kts | 180° |
| 2026-04-27 01:31 | -42.88221 | 147.49967 | 1491 ft | 122 kts | 180° |
| 2026-04-27 01:31 | -42.89069 | 147.50050 | 1490 ft | 122 kts | 180° |
| 2026-04-27 01:32 | -42.89915 | 147.50133 | 1465 ft | 122 kts | 181° |
| 2026-04-27 01:32 | -42.90759 | 147.50256 | 1468 ft | 122 kts | 176° |
| 2026-04-27 01:32 | -42.91589 | 147.50355 | 1469 ft | 118 kts | 184° |
| 2026-04-27 01:32 | -42.92411 | 147.50359 | 1469 ft | 118 kts | 185° |
| 2026-04-27 01:33 | -42.93234 | 147.50342 | 1477 ft | 118 kts | 185° |
| 2026-04-27 01:33 | -42.94055 | 147.50331 | 1474 ft | 118 kts | 185° |
| 2026-04-27 01:33 | -42.94879 | 147.50318 | 1473 ft | 119 kts | 185° |
| 2026-04-27 01:33 | -42.95693 | 147.50297 | 1470 ft | 119 kts | 186° |
| 2026-04-27 01:34 | -42.96527 | 147.50266 | 1470 ft | 120 kts | 186° |
| 2026-04-27 01:34 | -42.97358 | 147.50218 | 1472 ft | 118 kts | 186° |
| 2026-04-27 01:34 | -42.98180 | 147.50162 | 1470 ft | 119 kts | 188° |
| 2026-04-27 01:34 | -42.98998 | 147.50011 | 1470 ft | 118 kts | 193° |
| 2026-04-27 01:35 | -42.99802 | 147.49833 | 1471 ft | 116 kts | 193° |
| 2026-04-27 01:35 | -43.00603 | 147.49656 | 1469 ft | 116 kts | 194° |
| 2026-04-27 01:35 | -43.01399 | 147.49445 | 1468 ft | 117 kts | 195° |
| 2026-04-27 01:35 | -43.02191 | 147.49209 | 1469 ft | 116 kts | 201° |
| 2026-04-27 01:36 | -43.02809 | 147.48575 | 1465 ft | 111 kts | 238° |
| 2026-04-27 01:36 | -43.03051 | 147.47586 | 1471 ft | 108 kts | 262° |
| 2026-04-27 01:36 | -43.03135 | 147.46558 | 1467 ft | 110 kts | 266° |
| 2026-04-27 01:36 | -43.03188 | 147.45518 | 1472 ft | 108 kts | 267° |
| 2026-04-27 01:37 | -43.03217 | 147.44480 | 1465 ft | 110 kts | 276° |
| 2026-04-27 01:37 | -43.02867 | 147.43564 | 1466 ft | 112 kts | 314° |
| 2026-04-27 01:37 | -43.02176 | 147.43053 | 1469 ft | 113 kts | 333° |
| 2026-04-27 01:37 | -43.01425 | 147.42708 | 1469 ft | 113 kts | 338° |
| 2026-04-27 01:38 | -43.00665 | 147.42400 | 1467 ft | 116 kts | 339° |
| 2026-04-27 01:38 | -42.99893 | 147.42080 | 1467 ft | 116 kts | 339° |
| 2026-04-27 01:38 | -42.99124 | 147.41760 | 1469 ft | 115 kts | 339° |
| 2026-04-27 01:38 | -42.98349 | 147.41519 | 1466 ft | 117 kts | 354° |
| 2026-04-27 01:39 | -42.97807 | 147.41555 | 1470 ft | 118 kts | 358° |
| 2026-04-27 01:39 | -42.96986 | 147.41576 | 1470 ft | 118 kts | 357° |
| 2026-04-27 01:39 | -42.96166 | 147.41591 | 1469 ft | 118 kts | 356° |
| 2026-04-27 01:39 | -42.95350 | 147.41610 | 1467 ft | 117 kts | 357° |
| 2026-04-27 01:40 | -42.94540 | 147.41563 | 1465 ft | 117 kts | 345° |
| 2026-04-27 01:40 | -42.93851 | 147.41025 | 1472 ft | 113 kts | 316° |
| 2026-04-27 01:40 | -42.93267 | 147.40331 | 1473 ft | 109 kts | 316° |
| 2026-04-27 01:40 | -42.92716 | 147.39676 | 1468 ft | 103 kts | 316° |
| 2026-04-27 01:41 | -42.92180 | 147.39042 | 1438 ft | 101 kts | 316° |
| 2026-04-27 01:41 | -42.91657 | 147.38418 | 1339 ft | 99 kts | 315° |
| 2026-04-27 01:41 | -42.91141 | 147.37817 | 1240 ft | 96 kts | 317° |
| 2026-04-27 01:41 | -42.90630 | 147.37249 | 1126 ft | 93 kts | 317° |
| 2026-04-27 01:42 | -42.90123 | 147.36714 | 1032 ft | 91 kts | 317° |
| 2026-04-27 01:42 | -42.89627 | 147.36196 | 906 ft | 88 kts | 316° |
| 2026-04-27 01:42 | -42.89180 | 147.35676 | 785 ft | 81 kts | 309° |
| 2026-04-27 01:42 | -42.88865 | 147.35106 | 683 ft | 69 kts | 299° |
| 2026-04-27 01:43 | -42.88638 | 147.34624 | 700 ft | 47 kts | 299° |
| 2026-04-27 01:43 | -42.88518 | 147.34355 | 706 ft | 23 kts | 298° |
| 2026-04-27 01:43 | -42.88421 | 147.34156 | 711 ft | 29 kts | 298° |
| 2026-04-27 01:43 | -42.88273 | 147.33916 | 705 ft | 37 kts | 292° |
| 2026-04-27 01:44 | -42.88100 | 147.33641 | 605 ft | 37 kts | 283° |
| 2026-04-27 01:44 | -42.88021 | 147.33320 | 448 ft | 31 kts | 273° |
| 2026-04-27 01:44 | -42.87997 | 147.33153 | 316 ft | 6 kts | 271° |
| 2026-04-27 01:44 | -42.87992 | 147.33101 | 277 ft | 7 kts | 278° |
| 2026-04-27 01:45 | -42.87976 | 147.33057 | 244 ft | 2 kts | 297° |
| 2026-04-27 01:45 | -42.87975 | 147.33051 | 238 ft | 0 kts | 317° |
| 2026-04-27 01:45 | -42.87974 | 147.33051 | 230 ft | 0 kts | 313° |
| 2026-04-27 01:46 | -42.87975 | 147.33051 | 234 ft | 0 kts | 316° |
| 2026-04-27 01:46 | -42.87971 | 147.33047 | 238 ft | 4 kts | 316° |
| 2026-04-27 01:46 | -42.87838 | 147.32890 | 380 ft | 50 kts | 313° |
| 2026-04-27 01:46 | -42.87513 | 147.32539 | 616 ft | 62 kts | 320° |
| 2026-04-27 01:47 | -42.87081 | 147.32384 | 909 ft | 77 kts | 8° |
| 2026-04-27 01:47 | -42.86675 | 147.33016 | 1004 ft | 114 kts | 66° |
| 2026-04-27 01:47 | -42.86756 | 147.34126 | 935 ft | 118 kts | 119° |
| 2026-04-27 01:47 | -42.87294 | 147.34878 | 988 ft | 107 kts | 148° |
| 2026-04-27 01:48 | -42.87890 | 147.35489 | 1067 ft | 108 kts | 147° |
| 2026-04-27 01:48 | -42.88525 | 147.36098 | 1044 ft | 116 kts | 150° |
| 2026-04-27 01:48 | -42.89212 | 147.36607 | 851 ft | 105 kts | 173° |
| 2026-04-27 01:48 | -42.89834 | 147.36474 | 753 ft | 80 kts | 220° |
| 2026-04-27 01:49 | -42.89964 | 147.35922 | 643 ft | 64 kts | 307° |
| 2026-04-27 01:49 | -42.89588 | 147.35577 | 676 ft | 62 kts | 321° |
| 2026-04-27 01:49 | -42.89262 | 147.35260 | 714 ft | 52 kts | 314° |
| 2026-04-27 01:49 | -42.89033 | 147.34995 | 699 ft | 34 kts | 307° |
| 2026-04-27 01:50 | -42.88890 | 147.34808 | 730 ft | 28 kts | 303° |
| 2026-04-27 01:50 | -42.88749 | 147.34601 | 684 ft | 32 kts | 301° |
| 2026-04-27 01:50 | -42.88605 | 147.34339 | 710 ft | 37 kts | 300° |
| 2026-04-27 01:50 | -42.88453 | 147.34014 | 720 ft | 42 kts | 295° |
| 2026-04-27 01:51 | -42.88308 | 147.33710 | 647 ft | 33 kts | 296° |
| 2026-04-27 01:51 | -42.88210 | 147.33501 | 585 ft | 21 kts | 292° |
| 2026-04-27 01:51 | -42.88133 | 147.33378 | 521 ft | 15 kts | 292° |
| 2026-04-27 01:51 | -42.88071 | 147.33253 | 457 ft | 16 kts | 287° |
| 2026-04-27 01:52 | -42.88018 | 147.33140 | 344 ft | 12 kts | 311° |
| 2026-04-27 01:52 | -42.87990 | 147.33074 | 258 ft | 4 kts | 311° |
| 2026-04-27 01:52 | -42.87977 | 147.33055 | 244 ft | 2 kts | 315° |
| 2026-04-27 01:52 | -42.87974 | 147.33050 | 234 ft | 0 kts | 316° |
| 2026-04-27 01:53 | -42.87974 | 147.33049 | 230 ft | 0 kts | 316° |
| 2026-04-27 01:53 | -42.87974 | 147.33048 | 230 ft | 1 kts | 323° |
| 2026-04-27 01:54 | -42.87975 | 147.33052 | 237 ft | 0 kts | 322° |
| 2026-04-27 01:54 | -42.87972 | 147.33050 | 236 ft | 0 kts | 289° |
| 2026-04-27 01:54 | -42.87969 | 147.33043 | 233 ft | 5 kts | 283° |
| 2026-04-27 01:54 | -42.87932 | 147.32813 | 289 ft | 48 kts | 278° |
| 2026-04-27 01:55 | -42.87820 | 147.32304 | 525 ft | 58 kts | 285° |
| 2026-04-27 01:55 | -42.87525 | 147.31877 | 800 ft | 74 kts | 329° |
| 2026-04-27 01:55 | -42.86984 | 147.32049 | 955 ft | 91 kts | 32° |
| 2026-04-27 01:55 | -42.86685 | 147.32801 | 1224 ft | 91 kts | 71° |
| 2026-04-27 01:56 | -42.86297 | 147.34492 | 1497 ft | 108 kts | 70° |
| 2026-04-27 01:56 | -42.86085 | 147.35544 | 1454 ft | 122 kts | 71° |
| 2026-04-27 01:56 | -42.85864 | 147.36701 | 1391 ft | 129 kts | 71° |
| 2026-04-27 01:57 | -42.85643 | 147.37849 | 1393 ft | 120 kts | 72° |
| 2026-04-27 01:57 | -42.85418 | 147.38903 | 1522 ft | 113 kts | 71° |
| 2026-04-27 01:57 | -42.85181 | 147.39948 | 1570 ft | 122 kts | 69° |
| 2026-04-27 01:57 | -42.84937 | 147.41111 | 1496 ft | 133 kts | 70° |
| 2026-04-27 01:58 | -42.84625 | 147.42302 | 1432 ft | 134 kts | 64° |
| 2026-04-27 01:58 | -42.84279 | 147.43466 | 1390 ft | 130 kts | 64° |
| 2026-04-27 01:58 | -42.83915 | 147.44566 | 1341 ft | 123 kts | 60° |
| 2026-04-27 01:58 | -42.83669 | 147.45663 | 1180 ft | 121 kts | 82° |
| 2026-04-27 01:59 | -42.83772 | 147.46780 | 1044 ft | 119 kts | 105° |
| 2026-04-27 01:59 | -42.83959 | 147.47853 | 942 ft | 111 kts | 105° |
| 2026-04-27 01:59 | -42.84123 | 147.48810 | 1001 ft | 101 kts | 105° |
| 2026-04-27 01:59 | -42.84263 | 147.49714 | 908 ft | 95 kts | 93° |
| 2026-04-27 02:00 | -42.84001 | 147.50371 | 789 ft | 73 kts | 16° |
| 2026-04-27 02:00 | -42.83623 | 147.50291 | 730 ft | 52 kts | 313° |
| 2026-04-27 02:00 | -42.83360 | 147.49954 | 691 ft | 53 kts | 298° |
| 2026-04-27 02:00 | -42.83163 | 147.49523 | 666 ft | 54 kts | 287° |
| 2026-04-27 02:01 | -42.83076 | 147.49047 | 482 ft | 48 kts | 290° |
| 2026-04-27 02:01 | -42.83042 | 147.48647 | 329 ft | 38 kts | 291° |
| 2026-04-27 02:01 | -42.82964 | 147.48336 | 174 ft | 31 kts | 288° |
| 2026-04-27 02:01 | -42.82924 | 147.48141 | 68 ft | 10 kts | 283° |
| 2026-04-27 02:02 | -42.82919 | 147.48127 | 45 ft | 1 kts | 286° |
| 2026-04-27 02:02 | -42.82900 | 147.48060 | 62 ft | 18 kts | 285° |
| 2026-04-27 02:02 | -42.82859 | 147.47843 | 76 ft | 27 kts | 282° |
| 2026-04-27 02:02 | -42.82835 | 147.47702 | 53 ft | 5 kts | 279° |
| 2026-04-27 02:03 | -42.82825 | 147.47655 | 57 ft | 4 kts | 291° |
| 2026-04-27 02:03 | -42.82820 | 147.47611 | 57 ft | 5 kts | 262° |
| 2026-04-27 02:03 | -42.82860 | 147.47585 | 55 ft | 7 kts | 201° |
| 2026-04-27 02:03 | -42.82895 | 147.47570 | 59 ft | 6 kts | 193° |
| 2026-04-27 02:04 | -42.82929 | 147.47585 | 57 ft | 8 kts | 115° |
| 2026-04-27 02:04 | -42.82944 | 147.47647 | 55 ft | 5 kts | 44° |
| 2026-04-27 02:04 | -42.82926 | 147.47670 | 52 ft | 2 kts | 6° |
| 2026-04-27 02:04 | -42.82918 | 147.47669 | 52 ft | 0 kts | 20° |
| 2026-04-27 02:05 | -42.82916 | 147.47670 | 49 ft | 0 kts | 20° |
| 2026-04-27 02:05 | -42.82916 | 147.47671 | 47 ft | 0 kts | 20° |